This is the latest recevied weather packets stored in our database for station/object EB2EMZ-W. If no packets are shown the sender has not sent any weather packets the latest 10 day(s).
| Time | Temp. | Humidity | Pressure | Rain* | Wind** | Luminosity | Snow |
|---|---|---|---|---|---|---|---|
| 1788030682 | 23.89° C | 41% | 1004 hPa | 0 mm | - | - | - |
| 1788028873 | 24.44° C | 36% | 1003 hPa | 0 mm | - | - | - |
| 1788027065 | 25.56° C | 32% | 1003 hPa | 0 mm | - | - | - |
| 1788025258 | 35° C | 17% | 1003 hPa | 0 mm | - | - | - |
| 1788023451 | 35.56° C | 16% | 1003 hPa | 0 mm | - | - | - |
| 1788021642 | 33.89° C | 14% | 1002 hPa | 0 mm | - | - | - |
| 1788019835 | 41.67° C | 11% | 1002 hPa | 0 mm | - | - | - |
| 1788018028 | 43.33° C | 8% | 1002 hPa | 0 mm | - | - | - |
| 1788016219 | 38.33° C | 12% | 1002 hPa | 0 mm | - | - | - |
| 1788014413 | 31.67° C | 18% | 1001 hPa | 0 mm | - | - | - |
| 1788012605 | 31.67° C | 18% | 1001 hPa | 0 mm | - | - | - |
| 1788010797 | 31.11° C | 15% | 1002 hPa | 0 mm | - | - | - |
| 1788008988 | 31.11° C | 15% | 1002 hPa | 0 mm | - | - | - |
| 1788007181 | 30.56° C | 18% | 1002 hPa | 0 mm | - | - | - |
| 1788005373 | 30° C | 18% | 1002 hPa | 0 mm | - | - | - |
| 1788003566 | 29.44° C | 19% | 1002 hPa | 0 mm | - | - | - |
| 1788001757 | 28.89° C | 19% | 1002 hPa | 0 mm | - | - | - |
| 1787999950 | 27.78° C | 20% | 1002 hPa | 0 mm | - | - | - |
| 1787998142 | 27.22° C | 22% | 1003 hPa | 0 mm | - | - | - |
| 1787996334 | 26.11° C | 26% | 1003 hPa | 0 mm | - | - | - |
| 1787994526 | 24.44° C | 31% | 1003 hPa | 0 mm | - | - | - |
| 1787992719 | 22.78° C | 43% | 1002 hPa | 0 mm | - | - | - |
| 1787990911 | 20.56° C | 56% | 1002 hPa | 0 mm | - | - | - |
| 1787989104 | 18.89° C | 65% | 1002 hPa | 0 mm | - | - | - |
| 1787987295 | 17.22° C | 71% | 1002 hPa | 0 mm | - | - | - |
* Rain latest hour (hover to see other rain measurements)
** Current wind speed in m/s (hover to see current wind gust speed)